sensor_id;sensor_type;location;lat;lon;timestamp;pressure;altitude;pressure_sealevel;temperature;humidity
70200;BME280;57587;55.688;37.600;2023-01-28T00:02:02;100183.13;;;2.60;63.67
70200;BME280;57587;55.688;37.600;2023-01-28T00:04:29;100185.53;;;2.52;63.33
70200;BME280;57587;55.688;37.600;2023-01-28T00:06:56;100185.75;;;2.49;63.87
70200;BME280;57587;55.688;37.600;2023-01-28T00:09:23;100177.81;;;2.49;63.53
70200;BME280;57587;55.688;37.600;2023-01-28T00:11:50;100177.00;;;2.48;63.70
70200;BME280;57587;55.688;37.600;2023-01-28T00:14:17;100170.63;;;2.51;63.98
70200;BME280;57587;55.688;37.600;2023-01-28T00:16:44;100176.16;;;2.48;64.14
70200;BME280;57587;55.688;37.600;2023-01-28T00:19:12;100173.75;;;2.45;64.22
70200;BME280;57587;55.688;37.600;2023-01-28T00:21:39;100173.97;;;2.42;64.10
70200;BME280;57587;55.688;37.600;2023-01-28T00:24:06;100175.41;;;2.46;63.86
70200;BME280;57587;55.688;37.600;2023-01-28T00:26:35;100177.81;;;2.49;64.19
70200;BME280;57587;55.688;37.600;2023-01-28T00:29:02;100181.44;;;2.48;63.87
70200;BME280;57587;55.688;37.600;2023-01-28T00:31:30;100177.59;;;2.52;63.30
70200;BME280;57587;55.688;37.600;2023-01-28T00:33:59;100182.38;;;2.47;63.50
70200;BME280;57587;55.688;37.600;2023-01-28T00:36:26;100176.81;;;2.27;63.76
70200;BME280;57587;55.688;37.600;2023-01-28T00:38:58;100181.97;;;2.29;64.01
70200;BME280;57587;55.688;37.600;2023-01-28T00:41:27;100177.56;;;2.29;63.67
70200;BME280;57587;55.688;37.600;2023-01-28T00:43:57;100186.41;;;2.28;63.90
70200;BME280;57587;55.688;37.600;2023-01-28T00:46:25;100180.66;;;2.23;63.72
70200;BME280;57587;55.688;37.600;2023-01-28T00:48:54;100197.44;;;2.22;63.89
70200;BME280;57587;55.688;37.600;2023-01-28T00:51:22;100190.97;;;2.26;63.29
70200;BME280;57587;55.688;37.600;2023-01-28T00:53:49;100194.78;;;2.22;63.35
70200;BME280;57587;55.688;37.600;2023-01-28T00:56:17;100193.97;;;2.22;63.60
70200;BME280;57587;55.688;37.600;2023-01-28T00:58:45;100204.41;;;2.23;63.61
70200;BME280;57587;55.688;37.600;2023-01-28T01:01:18;100199.13;;;2.23;63.27
70200;BME280;57587;55.688;37.600;2023-01-28T01:03:47;100193.13;;;2.21;63.45
70200;BME280;57587;55.688;37.600;2023-01-28T01:06:20;100189.88;;;2.18;63.19
70200;BME280;57587;55.688;37.600;2023-01-28T01:08:48;100198.63;;;2.18;63.22
70200;BME280;57587;55.688;37.600;2023-01-28T01:11:17;100198.63;;;2.18;62.48
70200;BME280;57587;55.688;37.600;2023-01-28T01:13:58;100198.50;;;2.20;62.88
70200;BME280;57587;55.688;37.600;2023-01-28T01:16:30;100195.16;;;2.18;62.52
70200;BME280;57587;55.688;37.600;2023-01-28T01:18:59;100199.69;;;2.16;62.68
70200;BME280;57587;55.688;37.600;2023-01-28T01:21:27;100198.03;;;2.15;62.50
70200;BME280;57587;55.688;37.600;2023-01-28T01:23:55;100198.84;;;2.15;62.57
70200;BME280;57587;55.688;37.600;2023-01-28T01:26:22;100207.09;;;2.11;62.36
70200;BME280;57587;55.688;37.600;2023-01-28T01:28:50;100207.97;;;2.11;62.74
70200;BME280;57587;55.688;37.600;2023-01-28T01:31:19;100200.28;;;2.08;62.16
70200;BME280;57587;55.688;37.600;2023-01-28T01:33:50;100199.53;;;2.06;62.01
70200;BME280;57587;55.688;37.600;2023-01-28T01:36:18;100192.59;;;2.05;62.25
70200;BME280;57587;55.688;37.600;2023-01-28T01:38:52;100198.31;;;1.99;62.07
70200;BME280;57587;55.688;37.600;2023-01-28T01:41:30;100194.94;;;1.97;62.28
70200;BME280;57587;55.688;37.600;2023-01-28T01:44:00;100190.19;;;2.02;61.76
70200;BME280;57587;55.688;37.600;2023-01-28T01:46:40;100179.72;;;2.00;61.95
70200;BME280;57587;55.688;37.600;2023-01-28T01:49:24;100186.69;;;2.01;61.95
70200;BME280;57587;55.688;37.600;2023-01-28T01:51:56;100187.25;;;1.94;61.64
70200;BME280;57587;55.688;37.600;2023-01-28T01:54:27;100183.78;;;1.93;61.53
70200;BME280;57587;55.688;37.600;2023-01-28T01:56:56;100184.75;;;1.92;61.60
70200;BME280;57587;55.688;37.600;2023-01-28T01:59:28;100188.44;;;1.90;61.52
70200;BME280;57587;55.688;37.600;2023-01-28T02:01:57;100187.59;;;1.89;61.49
70200;BME280;57587;55.688;37.600;2023-01-28T02:04:32;100193.81;;;1.88;61.46
70200;BME280;57587;55.688;37.600;2023-01-28T02:07:01;100191.31;;;1.87;61.85
70200;BME280;57587;55.688;37.600;2023-01-28T02:09:31;100195.97;;;1.83;61.55
70200;BME280;57587;55.688;37.600;2023-01-28T02:12:07;100199.94;;;1.89;61.19
70200;BME280;57587;55.688;37.600;2023-01-28T02:14:43;100192.38;;;1.84;61.47
70200;BME280;57587;55.688;37.600;2023-01-28T02:17:12;100191.84;;;1.79;61.67
70200;BME280;57587;55.688;37.600;2023-01-28T02:19:45;100200.84;;;1.76;61.69
70200;BME280;57587;55.688;37.600;2023-01-28T02:22:28;100198.72;;;1.81;61.56
70200;BME280;57587;55.688;37.600;2023-01-28T02:30:41;100198.19;;;1.76;62.06
70200;BME280;57587;55.688;37.600;2023-01-28T02:33:38;100204.44;;;1.75;61.39
70200;BME280;57587;55.688;37.600;2023-01-28T02:36:14;100206.00;;;1.78;61.11
70200;BME280;57587;55.688;37.600;2023-01-28T02:38:48;100206.34;;;1.73;61.55
70200;BME280;57587;55.688;37.600;2023-01-28T02:41:22;100203.47;;;1.76;61.13
70200;BME280;57587;55.688;37.600;2023-01-28T02:43:50;100205.94;;;1.67;61.39
70200;BME280;57587;55.688;37.600;2023-01-28T02:46:21;100210.91;;;1.71;61.44
70200;BME280;57587;55.688;37.600;2023-01-28T02:49:11;100205.00;;;1.68;61.25
70200;BME280;57587;55.688;37.600;2023-01-28T03:00:33;100223.34;;;1.69;61.94
70200;BME280;57587;55.688;37.600;2023-01-28T03:03:07;100217.91;;;1.59;62.06
70200;BME280;57587;55.688;37.600;2023-01-28T03:05:44;100229.91;;;1.64;62.08
70200;BME280;57587;55.688;37.600;2023-01-28T03:11:26;100224.41;;;1.67;61.80
70200;BME280;57587;55.688;37.600;2023-01-28T03:14:15;100225.25;;;1.67;61.60
70200;BME280;57587;55.688;37.600;2023-01-28T03:17:02;100236.03;;;1.64;61.73
70200;BME280;57587;55.688;37.600;2023-01-28T03:19:53;100228.31;;;1.61;61.44
70200;BME280;57587;55.688;37.600;2023-01-28T03:22:43;100222.13;;;1.62;61.71
70200;BME280;57587;55.688;37.600;2023-01-28T03:25:34;100229.19;;;1.61;61.82
70200;BME280;57587;55.688;37.600;2023-01-28T03:28:21;100231.94;;;1.60;61.96
70200;BME280;57587;55.688;37.600;2023-01-28T03:31:12;100226.16;;;1.55;61.71
70200;BME280;57587;55.688;37.600;2023-01-28T03:34:01;100230.25;;;1.59;62.25
70200;BME280;57587;55.688;37.600;2023-01-28T03:36:49;100231.44;;;1.55;61.91
70200;BME280;57587;55.688;37.600;2023-01-28T03:39:40;100233.19;;;1.54;61.94
70200;BME280;57587;55.688;37.600;2023-01-28T03:42:12;100239.44;;;1.53;61.87
70200;BME280;57587;55.688;37.600;2023-01-28T03:45:03;100233.53;;;1.50;61.59
70200;BME280;57587;55.688;37.600;2023-01-28T03:47:31;100243.25;;;1.49;61.51
70200;BME280;57587;55.688;37.600;2023-01-28T03:50:02;100233.16;;;1.43;61.44
70200;BME280;57587;55.688;37.600;2023-01-28T03:52:37;100241.47;;;1.50;61.57
70200;BME280;57587;55.688;37.600;2023-01-28T03:55:15;100237.75;;;1.52;60.92
70200;BME280;57587;55.688;37.600;2023-01-28T03:57:42;100233.19;;;1.54;61.05
70200;BME280;57587;55.688;37.600;2023-01-28T04:00:12;100235.22;;;1.51;60.81
70200;BME280;57587;55.688;37.600;2023-01-28T04:02:39;100231.22;;;1.45;61.07
70200;BME280;57587;55.688;37.600;2023-01-28T04:05:10;100224.28;;;1.44;61.00
70200;BME280;57587;55.688;37.600;2023-01-28T04:07:44;100223.97;;;1.49;61.19
70200;BME280;57587;55.688;37.600;2023-01-28T04:10:19;100226.69;;;1.47;60.49
70200;BME280;57587;55.688;37.600;2023-01-28T04:12:56;100230.59;;;1.42;60.46
70200;BME280;57587;55.688;37.600;2023-01-28T04:15:24;100235.25;;;1.38;60.76
70200;BME280;57587;55.688;37.600;2023-01-28T04:17:53;100226.09;;;1.31;60.78
70200;BME280;57587;55.688;37.600;2023-01-28T04:20:25;100230.41;;;1.32;60.86
70200;BME280;57587;55.688;37.600;2023-01-28T04:22:53;100229.78;;;1.28;60.53
70200;BME280;57587;55.688;37.600;2023-01-28T04:25:21;100229.78;;;1.28;61.01
70200;BME280;57587;55.688;37.600;2023-01-28T04:27:48;100229.88;;;1.27;61.10
70200;BME280;57587;55.688;37.600;2023-01-28T04:30:19;100229.25;;;1.23;60.97
70200;BME280;57587;55.688;37.600;2023-01-28T04:33:05;100224.53;;;1.28;60.68
70200;BME280;57587;55.688;37.600;2023-01-28T04:35:42;100235.06;;;1.28;60.66
70200;BME280;57587;55.688;37.600;2023-01-28T04:38:19;100224.97;;;1.22;60.59
70200;BME280;57587;55.688;37.600;2023-01-28T04:40:56;100223.06;;;1.24;60.41
70200;BME280;57587;55.688;37.600;2023-01-28T04:43:33;100231.69;;;1.26;60.43
70200;BME280;57587;55.688;37.600;2023-01-28T04:46:36;100230.22;;;1.22;60.46
70200;BME280;57587;55.688;37.600;2023-01-28T04:49:11;100233.63;;;1.24;59.88
70200;BME280;57587;55.688;37.600;2023-01-28T04:52:11;100233.41;;;1.27;59.29
70200;BME280;57587;55.688;37.600;2023-01-28T04:55:06;100227.59;;;1.22;59.54
70200;BME280;57587;55.688;37.600;2023-01-28T04:57:33;100232.66;;;1.25;60.23
70200;BME280;57587;55.688;37.600;2023-01-28T05:00:00;100233.50;;;1.26;59.46
70200;BME280;57587;55.688;37.600;2023-01-28T05:02:30;100233.81;;;1.21;59.82
70200;BME280;57587;55.688;37.600;2023-01-28T05:04:57;100239.19;;;1.20;59.42
70200;BME280;57587;55.688;37.600;2023-01-28T05:07:42;100243.84;;;1.16;59.38
70200;BME280;57587;55.688;37.600;2023-01-28T05:10:09;100241.19;;;1.16;59.55
70200;BME280;57587;55.688;37.600;2023-01-28T05:12:37;100249.94;;;1.17;59.31
70200;BME280;57587;55.688;37.600;2023-01-28T05:15:07;100254.91;;;1.21;59.73
70200;BME280;57587;55.688;37.600;2023-01-28T05:17:34;100255.34;;;1.15;59.54
70200;BME280;57587;55.688;37.600;2023-01-28T05:20:02;100259.97;;;1.11;59.56
70200;BME280;57587;55.688;37.600;2023-01-28T05:22:30;100255.03;;;1.07;59.57
70200;BME280;57587;55.688;37.600;2023-01-28T05:25:23;100265.34;;;1.10;59.37
70200;BME280;57587;55.688;37.600;2023-01-28T05:27:50;100257.31;;;1.11;59.08
70200;BME280;57587;55.688;37.600;2023-01-28T05:30:19;100265.44;;;1.08;59.58
70200;BME280;57587;55.688;37.600;2023-01-28T05:32:47;100268.81;;;1.10;59.22
70200;BME280;57587;55.688;37.600;2023-01-28T05:35:17;100252.59;;;1.04;58.68
70200;BME280;57587;55.688;37.600;2023-01-28T05:37:45;100263.88;;;1.06;58.84
70200;BME280;57587;55.688;37.600;2023-01-28T05:40:12;100262.72;;;1.10;58.88
70200;BME280;57587;55.688;37.600;2023-01-28T05:42:40;100261.03;;;1.09;59.18
70200;BME280;57587;55.688;37.600;2023-01-28T05:45:20;100259.13;;;1.11;58.99
70200;BME280;57587;55.688;37.600;2023-01-28T05:48:07;100258.50;;;1.07;59.13
70200;BME280;57587;55.688;37.600;2023-01-28T05:50:55;100261.03;;;1.09;59.42
70200;BME280;57587;55.688;37.600;2023-01-28T05:53:34;100266.53;;;1.06;59.56
70200;BME280;57587;55.688;37.600;2023-01-28T05:56:01;100268.41;;;1.04;59.11
70200;BME280;57587;55.688;37.600;2023-01-28T05:58:30;100262.19;;;1.05;59.47
70200;BME280;57587;55.688;37.600;2023-01-28T06:01:01;100273.06;;;1.00;59.10
70200;BME280;57587;55.688;37.600;2023-01-28T06:03:37;100267.44;;;1.05;58.99
70200;BME280;57587;55.688;37.600;2023-01-28T06:06:04;100265.91;;;1.02;58.76
70200;BME280;57587;55.688;37.600;2023-01-28T06:08:31;100271.78;;;1.06;59.28
70200;BME280;57587;55.688;37.600;2023-01-28T06:10:59;100276.31;;;1.04;59.13
70200;BME280;57587;55.688;37.600;2023-01-28T06:13:31;100274.00;;;0.99;59.07
70200;BME280;57587;55.688;37.600;2023-01-28T06:16:17;100277.06;;;1.06;59.00
70200;BME280;57587;55.688;37.600;2023-01-28T06:19:02;100278.19;;;1.02;59.24
70200;BME280;57587;55.688;37.600;2023-01-28T06:21:30;100281.78;;;1.01;58.79
70200;BME280;57587;55.688;37.600;2023-01-28T06:23:57;100285.19;;;1.03;58.77
70200;BME280;57587;55.688;37.600;2023-01-28T06:26:24;100288.31;;;0.95;58.60
70200;BME280;57587;55.688;37.600;2023-01-28T06:28:51;100282.63;;;1.01;58.49
70200;BME280;57587;55.688;37.600;2023-01-28T06:31:18;100286.84;;;1.04;58.46
70200;BME280;57587;55.688;37.600;2023-01-28T06:33:45;100292.13;;;1.04;59.01
70200;BME280;57587;55.688;37.600;2023-01-28T06:36:13;100284.00;;;1.07;58.36
70200;BME280;57587;55.688;37.600;2023-01-28T06:38:40;100288.53;;;1.05;58.22
70200;BME280;57587;55.688;37.600;2023-01-28T06:41:07;100271.59;;;0.96;58.73
70200;BME280;57587;55.688;37.600;2023-01-28T06:43:34;100288.66;;;1.03;58.66
70200;BME280;57587;55.688;37.600;2023-01-28T06:46:01;100290.97;;;1.08;58.48
70200;BME280;57587;55.688;37.600;2023-01-28T06:48:28;100288.88;;;1.00;58.58
70200;BME280;57587;55.688;37.600;2023-01-28T06:50:55;100294.00;;;1.02;58.62
70200;BME280;57587;55.688;37.600;2023-01-28T06:53:22;100289.50;;;1.04;58.57
70200;BME280;57587;55.688;37.600;2023-01-28T06:55:49;100289.38;;;1.05;58.33
70200;BME280;57587;55.688;37.600;2023-01-28T06:58:16;100296.44;;;1.05;58.58
70200;BME280;57587;55.688;37.600;2023-01-28T07:00:43;100295.81;;;1.01;58.68
70200;BME280;57587;55.688;37.600;2023-01-28T07:03:10;100294.00;;;1.02;58.68
70200;BME280;57587;55.688;37.600;2023-01-28T07:05:37;100297.72;;;0.99;58.50
70200;BME280;57587;55.688;37.600;2023-01-28T07:08:04;100294.13;;;1.00;58.37
70200;BME280;57587;55.688;37.600;2023-01-28T07:10:32;100304.88;;;1.10;58.43
70200;BME280;57587;55.688;37.600;2023-01-28T07:12:59;100304.25;;;1.06;58.27
70200;BME280;57587;55.688;37.600;2023-01-28T07:15:26;100303.63;;;1.03;58.18
70200;BME280;57587;55.688;37.600;2023-01-28T07:17:53;100297.72;;;0.99;58.65
70200;BME280;57587;55.688;37.600;2023-01-28T07:20:21;100301.28;;;0.98;58.84
70200;BME280;57587;55.688;37.600;2023-01-28T07:22:48;100310.03;;;0.99;58.11
70200;BME280;57587;55.688;37.600;2023-01-28T07:25:19;100306.97;;;0.92;58.24
70200;BME280;57587;55.688;37.600;2023-01-28T07:27:51;100308.78;;;0.91;58.00
70200;BME280;57587;55.688;37.600;2023-01-28T07:30:36;100306.88;;;0.94;57.89
70200;BME280;57587;55.688;37.600;2023-01-28T07:33:03;100318.34;;;0.92;57.75
70200;BME280;57587;55.688;37.600;2023-01-28T07:35:30;100312.03;;;0.82;57.49
70200;BME280;57587;55.688;37.600;2023-01-28T07:37:59;100309.47;;;0.68;58.26
70200;BME280;57587;55.688;37.600;2023-01-28T07:40:28;100311.19;;;0.69;57.84
70200;BME280;57587;55.688;37.600;2023-01-28T07:42:55;100304.66;;;0.75;57.45
70200;BME280;57587;55.688;37.600;2023-01-28T07:45:24;100301.34;;;0.71;57.82
70200;BME280;57587;55.688;37.600;2023-01-28T07:47:59;100304.19;;;0.68;57.42
70200;BME280;57587;55.688;37.600;2023-01-28T07:50:27;100301.03;;;0.63;57.83
70200;BME280;57587;55.688;37.600;2023-01-28T07:52:55;100307.34;;;0.60;57.91
70200;BME280;57587;55.688;37.600;2023-01-28T07:55:23;100305.88;;;0.56;57.81
70200;BME280;57587;55.688;37.600;2023-01-28T07:57:55;100302.38;;;0.56;57.79
70200;BME280;57587;55.688;37.600;2023-01-28T08:00:43;100305.34;;;0.64;57.59
70200;BME280;57587;55.688;37.600;2023-01-28T10:26:14;100240.97;;;1.69;54.46
70200;BME280;57587;55.688;37.600;2023-01-28T10:28:53;100240.63;;;1.73;55.26
70200;BME280;57587;55.688;37.600;2023-01-28T10:31:22;100236.41;;;1.83;54.55
70200;BME280;57587;55.688;37.600;2023-01-28T10:33:54;100226.91;;;1.81;54.96
70200;BME280;57587;55.688;37.600;2023-01-28T10:36:22;100230.91;;;1.87;54.08
70200;BME280;57587;55.688;37.600;2023-01-28T10:38:50;100228.47;;;1.83;54.32
70200;BME280;57587;55.688;37.600;2023-01-28T10:41:20;100227.97;;;1.78;54.95
70200;BME280;57587;55.688;37.600;2023-01-28T10:43:48;100219.38;;;1.88;54.76
70200;BME280;57587;55.688;37.600;2023-01-28T10:46:29;100230.66;;;1.90;54.41
70200;BME280;57587;55.688;37.600;2023-01-28T10:49:25;100220.94;;;1.90;54.48
70200;BME280;57587;55.688;37.600;2023-01-28T10:51:53;100225.63;;;1.87;54.65
70200;BME280;57587;55.688;37.600;2023-01-28T10:54:27;100221.78;;;1.91;54.94
70200;BME280;57587;55.688;37.600;2023-01-28T10:57:08;100216.66;;;2.00;54.63
70200;BME280;57587;55.688;37.600;2023-01-28T10:59:36;100211.84;;;1.94;54.75
70200;BME280;57587;55.688;37.600;2023-01-28T11:05:22;100210.56;;;2.00;54.25
70200;BME280;57587;55.688;37.600;2023-01-28T11:07:47;100207.41;;;1.95;53.94
70200;BME280;57587;55.688;37.600;2023-01-28T11:10:30;100204.53;;;1.98;54.13
70200;BME280;57587;55.688;37.600;2023-01-28T11:13:02;100206.00;;;2.02;54.26
70200;BME280;57587;55.688;37.600;2023-01-28T11:15:31;100205.94;;;2.15;54.20
70200;BME280;57587;55.688;37.600;2023-01-28T11:18:01;100193.81;;;2.12;54.90
70200;BME280;57587;55.688;37.600;2023-01-28T11:20:35;100190.56;;;2.20;54.44
70200;BME280;57587;55.688;37.600;2023-01-28T11:23:04;100198.16;;;2.24;54.18
70200;BME280;57587;55.688;37.600;2023-01-28T11:25:33;100200.31;;;2.19;54.29
70200;BME280;57587;55.688;37.600;2023-01-28T11:28:04;100195.03;;;2.19;53.81
70200;BME280;57587;55.688;37.600;2023-01-28T11:30:36;100198.41;;;2.21;54.04
70200;BME280;57587;55.688;37.600;2023-01-28T11:33:27;100193.00;;;2.23;54.04
70200;BME280;57587;55.688;37.600;2023-01-28T11:36:05;100198.63;;;2.18;53.59
70200;BME280;57587;55.688;37.600;2023-01-28T11:38:32;100195.38;;;2.15;53.41
70200;BME280;57587;55.688;37.600;2023-01-28T11:41:00;100189.97;;;2.16;53.34
70200;BME280;57587;55.688;37.600;2023-01-28T11:43:29;100181.13;;;2.17;53.68
70200;BME280;57587;55.688;37.600;2023-01-28T11:46:11;100182.25;;;2.02;53.81
70200;BME280;57587;55.688;37.600;2023-01-28T11:51:32;100179.28;;;1.82;54.73
70200;BME280;57587;55.688;37.600;2023-01-28T11:59:35;100165.31;;;1.69;54.88
70200;BME280;57587;55.688;37.600;2023-01-28T12:05:50;100150.38;;;1.57;55.28
70200;BME280;57587;55.688;37.600;2023-01-28T12:14:20;100148.25;;;1.62;55.38
70200;BME280;57587;55.688;37.600;2023-01-28T12:28:43;100146.63;;;1.48;56.21
70200;BME280;57587;55.688;37.600;2023-01-28T12:42:14;100138.75;;;1.35;56.48
70200;BME280;57587;55.688;37.600;2023-01-28T12:44:47;100136.72;;;1.39;56.85
70200;BME280;57587;55.688;37.600;2023-01-28T12:47:21;100139.66;;;1.47;56.39
70200;BME280;57587;55.688;37.600;2023-01-28T12:49:59;100136.72;;;1.52;56.51
70200;BME280;57587;55.688;37.600;2023-01-28T12:52:41;100136.59;;;1.53;56.21
70200;BME280;57587;55.688;37.600;2023-01-28T12:55:15;100131.88;;;1.46;56.49
70200;BME280;57587;55.688;37.600;2023-01-28T12:57:43;100129.91;;;1.36;56.70
70200;BME280;57587;55.688;37.600;2023-01-28T13:00:33;100132.94;;;1.43;56.60
70200;BME280;57587;55.688;37.600;2023-01-28T13:05:42;100133.78;;;1.44;56.05
70200;BME280;57587;55.688;37.600;2023-01-28T13:08:14;100135.91;;;1.38;56.77
70200;BME280;57587;55.688;37.600;2023-01-28T13:10:46;100133.25;;;1.38;56.66
70200;BME280;57587;55.688;37.600;2023-01-28T13:13:18;100128.94;;;1.37;56.70
70200;BME280;57587;55.688;37.600;2023-01-28T13:15:47;100128.94;;;1.37;56.55
70200;BME280;57587;55.688;37.600;2023-01-28T13:24:03;100124.91;;;1.45;56.52
70200;BME280;57587;55.688;37.600;2023-01-28T13:29:32;100128.50;;;1.44;56.72
70200;BME280;57587;55.688;37.600;2023-01-28T13:32:02;100128.00;;;1.38;56.86
70200;BME280;57587;55.688;37.600;2023-01-28T13:34:35;100126.19;;;1.39;57.14
70200;BME280;57587;55.688;37.600;2023-01-28T13:37:45;100124.81;;;1.46;56.91
70200;BME280;57587;55.688;37.600;2023-01-28T13:40:03;100118.84;;;1.31;56.92
70200;BME280;57587;55.688;37.600;2023-01-28T13:42:31;100124.34;;;1.28;57.13
70200;BME280;57587;55.688;37.600;2023-01-28T13:47:46;100122.03;;;1.24;57.10
70200;BME280;57587;55.688;37.600;2023-01-28T13:50:18;100115.91;;;1.23;57.62
70200;BME280;57587;55.688;37.600;2023-01-28T13:55:37;100113.78;;;1.28;57.24
70200;BME280;57587;55.688;37.600;2023-01-28T13:58:30;100109.72;;;1.24;57.52
70200;BME280;57587;55.688;37.600;2023-01-28T14:01:22;100107.69;;;1.28;57.46
70200;BME280;57587;55.688;37.600;2023-01-28T14:09:51;100095.00;;;1.33;57.56
70200;BME280;57587;55.688;37.600;2023-01-28T14:12:36;100088.19;;;1.30;57.49
70200;BME280;57587;55.688;37.600;2023-01-28T14:18:00;100086.75;;;1.37;57.72
70200;BME280;57587;55.688;37.600;2023-01-28T14:20:40;100086.47;;;1.29;57.33
70200;BME280;57587;55.688;37.600;2023-01-28T14:23:20;100093.38;;;1.19;57.57
70200;BME280;57587;55.688;37.600;2023-01-28T14:26:02;100080.03;;;1.09;57.81
70200;BME280;57587;55.688;37.600;2023-01-28T14:31:30;100076.78;;;1.06;58.29
70200;BME280;57587;55.688;37.600;2023-01-28T14:34:16;100083.63;;;0.96;58.41
70200;BME280;57587;55.688;37.600;2023-01-28T14:36:47;100075.72;;;0.96;57.98
70200;BME280;57587;55.688;37.600;2023-01-28T14:39:20;100078.38;;;0.96;58.44
70200;BME280;57587;55.688;37.600;2023-01-28T14:41:51;100077.66;;;0.94;58.85
70200;BME280;57587;55.688;37.600;2023-01-28T14:44:32;100077.97;;;0.89;58.55
70200;BME280;57587;55.688;37.600;2023-01-28T14:58:49;100078.31;;;1.08;58.77
70200;BME280;57587;55.688;37.600;2023-01-28T15:01:29;100074.97;;;1.06;58.96
70200;BME280;57587;55.688;37.600;2023-01-28T15:03:57;100072.97;;;1.10;58.41
70200;BME280;57587;55.688;37.600;2023-01-28T15:06:33;100066.84;;;1.09;58.55
70200;BME280;57587;55.688;37.600;2023-01-28T15:09:08;100069.19;;;1.01;59.03
70200;BME280;57587;55.688;37.600;2023-01-28T15:11:37;100062.25;;;1.00;59.07
70200;BME280;57587;55.688;37.600;2023-01-28T15:14:13;100063.09;;;1.01;59.05
70200;BME280;57587;55.688;37.600;2023-01-28T15:16:47;100058.78;;;1.00;58.68
70200;BME280;57587;55.688;37.600;2023-01-28T15:19:27;100062.47;;;0.97;59.12
70200;BME280;57587;55.688;37.600;2023-01-28T15:21:56;100069.00;;;0.91;59.27
70200;BME280;57587;55.688;37.600;2023-01-28T15:24:24;100064.47;;;0.94;59.37
70200;BME280;57587;55.688;37.600;2023-01-28T15:26:52;100058.03;;;0.98;59.00
70200;BME280;57587;55.688;37.600;2023-01-28T15:29:25;100065.16;;;1.08;59.32
70200;BME280;57587;55.688;37.600;2023-01-28T15:31:52;100062.19;;;1.13;59.31
70200;BME280;57587;55.688;37.600;2023-01-28T15:34:20;100063.41;;;1.20;58.52
70200;BME280;57587;55.688;37.600;2023-01-28T15:36:59;100066.84;;;1.09;59.00
70200;BME280;57587;55.688;37.600;2023-01-28T15:39:27;100064.91;;;1.11;58.61
70200;BME280;57587;55.688;37.600;2023-01-28T15:46:57;100059.78;;;1.10;58.95
70200;BME280;57587;55.688;37.600;2023-01-28T15:49:30;100049.34;;;1.08;58.77
70200;BME280;57587;55.688;37.600;2023-01-28T15:51:59;100057.47;;;1.05;58.89
70200;BME280;57587;55.688;37.600;2023-01-28T15:54:27;100050.88;;;1.00;59.16
70200;BME280;57587;55.688;37.600;2023-01-28T15:56:56;100050.03;;;0.99;58.96
70200;BME280;57587;55.688;37.600;2023-01-28T15:59:28;100045.06;;;0.95;58.90
70200;BME280;57587;55.688;37.600;2023-01-28T16:02:23;100054.47;;;0.86;59.55
70200;BME280;57587;55.688;37.600;2023-01-28T16:04:57;100039.03;;;0.81;60.05
70200;BME280;57587;55.688;37.600;2023-01-28T16:07:29;100036.03;;;0.86;59.63
70200;BME280;57587;55.688;37.600;2023-01-28T16:09:59;100034.88;;;0.90;59.61
70200;BME280;57587;55.688;37.600;2023-01-28T16:12:29;100028.03;;;0.87;59.62
70200;BME280;57587;55.688;37.600;2023-01-28T16:15:01;100030.38;;;0.79;59.49
70200;BME280;57587;55.688;37.600;2023-01-28T16:17:41;100028.78;;;0.77;59.42
70200;BME280;57587;55.688;37.600;2023-01-28T16:20:22;100023.97;;;0.71;60.26
70200;BME280;57587;55.688;37.600;2023-01-28T16:22:54;100025.88;;;0.68;60.03
70200;BME280;57587;55.688;37.600;2023-01-28T16:25:28;100018.22;;;0.65;60.21
70200;BME280;57587;55.688;37.600;2023-01-28T16:27:57;100020.31;;;0.60;60.59
70200;BME280;57587;55.688;37.600;2023-01-28T16:30:25;100031.38;;;0.65;60.45
70200;BME280;57587;55.688;37.600;2023-01-28T16:32:54;100023.69;;;0.62;60.36
70200;BME280;57587;55.688;37.600;2023-01-28T16:35:25;100026.13;;;0.53;60.82
70200;BME280;57587;55.688;37.600;2023-01-28T16:37:57;100015.13;;;0.59;60.71
70200;BME280;57587;55.688;37.600;2023-01-28T16:40:26;100020.19;;;0.62;60.72
70200;BME280;57587;55.688;37.600;2023-01-28T16:42:53;100020.72;;;0.67;60.85
70200;BME280;57587;55.688;37.600;2023-01-28T16:45:24;100016.84;;;0.60;60.35
70200;BME280;57587;55.688;37.600;2023-01-28T16:47:52;100002.72;;;0.61;60.95
70200;BME280;57587;55.688;37.600;2023-01-28T16:50:20;99996.72;;;0.59;60.82
70200;BME280;57587;55.688;37.600;2023-01-28T16:52:49;100000.81;;;0.63;61.10
70200;BME280;57587;55.688;37.600;2023-01-28T16:55:19;100003.72;;;0.71;60.98
70200;BME280;57587;55.688;37.600;2023-01-28T16:57:50;100003.28;;;0.77;60.54
70200;BME280;57587;55.688;37.600;2023-01-28T17:00:24;99999.94;;;0.75;60.72
70200;BME280;57587;55.688;37.600;2023-01-28T17:02:53;100004.25;;;0.76;60.54
70200;BME280;57587;55.688;37.600;2023-01-28T17:05:21;100003.03;;;0.69;60.79
70200;BME280;57587;55.688;37.600;2023-01-28T17:07:49;99999.03;;;0.63;60.55
70200;BME280;57587;55.688;37.600;2023-01-28T17:10:16;99997.22;;;0.64;60.40
70200;BME280;57587;55.688;37.600;2023-01-28T17:12:46;100000.09;;;0.61;60.81
70200;BME280;57587;55.688;37.600;2023-01-28T17:15:13;99996.72;;;0.59;60.84
70200;BME280;57587;55.688;37.600;2023-01-28T17:17:41;99992.41;;;0.58;61.48
70200;BME280;57587;55.688;37.600;2023-01-28T17:20:11;99986.91;;;0.61;61.42
70200;BME280;57587;55.688;37.600;2023-01-28T17:22:39;99997.22;;;0.64;60.71
70200;BME280;57587;55.688;37.600;2023-01-28T17:25:06;99997.97;;;0.66;61.14
70200;BME280;57587;55.688;37.600;2023-01-28T17:27:33;99996.28;;;0.65;60.67
70200;BME280;57587;55.688;37.600;2023-01-28T17:30:01;99993.19;;;0.71;60.60